createdAt,value
2018-02-06T00:00:09.902Z,26.95
2018-02-06T00:02:38.962Z,26.85
2018-02-06T00:05:08.320Z,32.92
2018-02-06T00:07:37.717Z,28.35
2018-02-06T00:10:07.840Z,24.48
2018-02-06T00:12:37.248Z,25.35
2018-02-06T00:15:06.606Z,28.10
2018-02-06T00:17:35.939Z,24.83
2018-02-06T00:20:06.092Z,28.38
2018-02-06T00:22:50.123Z,23.87
2018-02-06T00:25:19.502Z,28.67
2018-02-06T00:27:49.615Z,29.17
2018-02-06T00:30:19.949Z,23.05
2018-02-06T00:32:50.094Z,27.02
2018-02-06T00:35:19.490Z,26.12
2018-02-06T00:37:48.846Z,29.67
2018-02-06T00:40:18.215Z,25.75
2018-02-06T00:42:47.601Z,25.23
2018-02-06T00:45:16.938Z,32.90
2018-02-06T00:47:46.285Z,28.27
2018-02-06T00:50:15.673Z,29.30
2018-02-06T00:52:45.023Z,28.77
2018-02-06T00:55:14.400Z,24.98
2018-02-06T00:57:43.733Z,27.55
2018-02-06T01:00:13.104Z,27.05
2018-02-06T01:02:43.220Z,24.42
2018-02-06T01:05:13.320Z,25.15
2018-02-06T01:07:42.677Z,27.50
2018-02-06T01:10:12.039Z,26.65
2018-02-06T01:12:42.197Z,29.35
2018-02-06T01:15:11.574Z,25.05
2018-02-06T01:17:40.952Z,29.00
2018-02-06T01:20:10.300Z,24.75
2018-02-06T01:22:39.684Z,28.20
2018-02-06T01:25:09.081Z,29.65
2018-02-06T01:27:38.445Z,30.58
2018-02-06T01:30:07.947Z,29.10
2018-02-06T01:32:37.309Z,24.98
2018-02-06T01:35:06.682Z,29.08
2018-02-06T01:37:36.869Z,25.58
2018-02-06T01:40:06.231Z,29.58
2018-02-06T01:42:35.592Z,25.50
2018-02-06T01:45:05.717Z,32.50
2018-02-06T01:47:35.979Z,28.17
2018-02-06T01:50:06.029Z,28.00
2018-02-06T01:52:35.401Z,26.15
2018-02-06T01:55:04.756Z,27.77
2018-02-06T01:57:34.139Z,29.25
2018-02-06T02:00:03.492Z,30.73
2018-02-06T02:02:32.836Z,25.05
2018-02-06T02:05:02.212Z,36.15
2018-02-06T02:07:31.563Z,29.73
2018-02-06T02:10:00.924Z,30.85
2018-02-06T02:12:30.313Z,32.97
2018-02-06T02:15:00.272Z,30.10
2018-02-06T02:17:29.638Z,27.80
2018-02-06T02:19:58.981Z,31.92
2018-02-06T02:22:28.335Z,33.50
2018-02-06T02:24:57.666Z,31.05
2018-02-06T02:27:27.070Z,32.47
2018-02-06T02:29:56.422Z,29.17
2018-02-06T02:32:25.788Z,30.08
2018-02-06T02:34:55.185Z,29.50
2018-02-06T02:37:24.522Z,31.87
2018-02-06T02:39:53.873Z,28.42
2018-02-06T04:39:36.507Z,44.72
2018-02-06T04:42:06.631Z,30.33
2018-02-06T04:44:36.789Z,32.42
2018-02-06T04:47:06.139Z,33.00
2018-02-06T04:49:35.503Z,32.10
2018-02-06T04:52:05.116Z,35.97
2018-02-06T04:54:34.460Z,30.85
2018-02-06T04:57:04.592Z,38.33
2018-02-06T04:59:33.936Z,40.25
2018-02-06T05:02:03.334Z,37.25
2018-02-06T05:04:33.589Z,38.28
2018-02-06T05:07:02.964Z,38.65
2018-02-06T05:09:32.336Z,37.67
2018-02-06T05:12:01.693Z,38.80
2018-02-06T05:14:31.062Z,39.15
2018-02-06T05:17:00.420Z,35.17
2018-02-06T05:19:30.532Z,40.95
2018-02-06T05:22:00.682Z,41.03
2018-02-06T05:24:30.050Z,35.22
2018-02-06T05:27:00.208Z,36.00
2018-02-06T05:29:29.577Z,33.20
2018-02-06T05:31:59.720Z,31.70
2018-02-06T05:34:29.111Z,31.58
2018-02-06T05:36:59.239Z,33.25
2018-02-06T05:39:28.618Z,39.17
2018-02-06T05:41:58.766Z,35.03
2018-02-06T05:44:28.129Z,45.17
2018-02-06T05:46:57.511Z,37.53
2018-02-06T05:49:26.872Z,37.97
2018-02-06T05:51:56.230Z,33.30
2018-02-06T05:54:25.632Z,34.72
2018-02-06T05:56:54.978Z,32.05
2018-02-06T05:59:24.357Z,35.10
2018-02-06T06:01:53.703Z,32.60
2018-02-06T06:04:23.072Z,37.67
2018-02-06T06:06:52.431Z,38.20
2018-02-06T06:09:21.783Z,36.78
2018-02-06T06:11:51.155Z,38.83
2018-02-06T06:14:20.554Z,37.72
2018-02-06T06:16:49.911Z,34.53
2018-02-06T06:19:19.246Z,40.63
2018-02-06T06:21:48.620Z,32.58
2018-02-06T06:24:17.996Z,38.03
2018-02-06T06:26:47.370Z,34.70
2018-02-06T06:29:16.867Z,36.67
2018-02-06T06:31:46.202Z,37.80
2018-02-06T06:34:15.551Z,35.45
2018-02-06T06:36:44.927Z,36.80
2018-02-06T06:39:14.272Z,36.47
2018-02-06T06:41:43.651Z,37.53
2018-02-06T06:44:12.999Z,40.78
2018-02-06T06:46:43.178Z,39.38
2018-02-06T06:49:12.526Z,34.05
2018-02-06T06:51:41.879Z,42.53
2018-02-06T06:54:11.261Z,37.95
2018-02-06T06:56:40.604Z,35.78
2018-02-06T06:59:10.005Z,33.05
2018-02-06T07:01:39.367Z,40.53
2018-02-06T07:04:08.730Z,40.40
2018-02-06T07:06:38.909Z,38.45
2018-02-06T07:09:08.266Z,36.53
2018-02-06T07:11:37.594Z,39.92
2018-02-06T07:14:06.981Z,43.92
2018-02-06T07:16:36.356Z,45.30
2018-02-06T07:19:06.330Z,39.47
2018-02-06T07:21:35.717Z,43.15
2018-02-06T07:24:05.088Z,41.67
2018-02-06T07:26:34.438Z,38.53
2018-02-06T07:29:03.808Z,42.38
2018-02-06T07:31:33.185Z,38.20
2018-02-06T07:34:03.342Z,39.58
2018-02-06T07:36:32.695Z,46.33
2018-02-06T07:39:02.055Z,36.22
2018-02-06T07:41:31.427Z,39.22
2018-02-06T07:44:00.792Z,37.97
2018-02-06T07:46:31.081Z,38.25
2018-02-06T07:49:00.435Z,36.83
2018-02-06T07:51:30.603Z,35.55
2018-02-06T07:53:59.982Z,40.25
2018-02-06T07:56:29.345Z,40.38
2018-02-06T07:58:58.698Z,45.35
2018-02-06T08:01:28.064Z,40.75
2018-02-06T08:03:58.222Z,43.60
2018-02-06T08:06:27.593Z,36.60
2018-02-06T08:08:57.739Z,41.63
2018-02-06T08:11:27.098Z,38.28
2018-02-06T08:13:57.240Z,43.03
2018-02-06T08:16:26.596Z,43.30
2018-02-06T08:18:55.969Z,41.55
2018-02-06T08:21:25.360Z,43.83
2018-02-06T08:23:54.754Z,45.10
2018-02-06T08:26:24.128Z,40.60
2018-02-06T08:28:53.498Z,49.03
2018-02-06T08:31:22.867Z,45.28
2018-02-06T08:33:52.227Z,47.55
2018-02-06T08:36:21.621Z,48.15
2018-02-06T08:38:50.984Z,39.13
2018-02-06T08:41:20.326Z,40.80
2018-02-06T08:43:49.702Z,46.67
2018-02-06T08:46:19.064Z,45.35
2018-02-06T08:48:48.449Z,47.45
2018-02-06T08:51:18.585Z,44.38
2018-02-06T08:53:47.963Z,45.47
2018-02-06T08:56:17.316Z,42.70
2018-02-06T08:58:46.668Z,44.80
2018-02-06T09:01:16.053Z,40.08
2018-02-06T09:03:45.407Z,45.20
2018-02-06T09:06:14.764Z,42.15
2018-02-06T09:08:44.132Z,49.53
2018-02-06T09:11:13.482Z,40.15
2018-02-06T09:13:42.876Z,52.10
2018-02-06T09:16:12.240Z,42.80
2018-02-06T09:18:41.625Z,41.05
2018-02-06T09:21:10.973Z,42.10
2018-02-06T09:23:40.361Z,42.08
2018-02-06T09:26:10.536Z,44.92
2018-02-06T09:28:39.902Z,43.22
2018-02-06T09:31:09.264Z,41.85
2018-02-06T09:33:39.402Z,50.83
2018-02-06T09:36:08.766Z,48.15
2018-02-06T09:38:38.119Z,40.90
2018-02-06T09:41:07.493Z,41.97
2018-02-06T09:43:36.853Z,43.00
2018-02-06T09:46:06.990Z,42.00
2018-02-06T09:48:36.366Z,43.97
2018-02-06T09:51:05.725Z,41.53
2018-02-06T09:53:35.095Z,36.97
2018-02-06T09:56:04.462Z,47.22
2018-02-06T09:58:33.864Z,45.58
2018-02-06T10:01:03.233Z,43.35
2018-02-06T10:03:32.576Z,43.58
2018-02-06T10:06:01.917Z,40.95
2018-02-06T10:08:31.301Z,46.05
2018-02-06T10:11:01.407Z,42.25
2018-02-06T10:13:31.515Z,40.88
2018-02-06T10:16:01.681Z,47.35
2018-02-06T10:18:31.026Z,46.42
2018-02-06T10:21:00.410Z,48.92
2018-02-06T10:23:29.774Z,47.83
2018-02-06T10:25:59.122Z,41.70
2018-02-06T10:28:28.561Z,45.10
2018-02-06T10:30:58.674Z,48.15
2018-02-06T10:33:28.037Z,47.45
2018-02-06T10:35:57.401Z,45.35
2018-02-06T10:38:26.787Z,44.22
2018-02-06T10:40:56.896Z,45.67
2018-02-06T10:43:26.281Z,49.00
2018-02-06T10:45:55.615Z,43.28
2018-02-06T10:48:25.744Z,47.58
2018-02-06T10:50:55.090Z,47.05
2018-02-06T10:53:24.446Z,52.47
2018-02-06T10:55:53.803Z,41.88
2018-02-06T10:58:23.155Z,45.50
2018-02-06T11:00:52.528Z,44.55
2018-02-06T11:03:22.651Z,47.80
2018-02-06T11:05:52.023Z,45.10
2018-02-06T11:08:21.386Z,47.25
2018-02-06T11:10:50.723Z,53.50
2018-02-06T11:13:20.092Z,47.38
2018-02-06T11:15:49.444Z,42.65
2018-02-06T11:18:18.835Z,52.13
2018-02-06T11:20:48.194Z,42.72
2018-02-06T11:23:17.540Z,41.53
2018-02-06T11:25:46.907Z,47.62
2018-02-06T11:28:16.255Z,49.92
2018-02-06T11:30:45.612Z,49.78
2018-02-06T11:33:14.979Z,49.35
2018-02-06T11:35:44.363Z,46.50
2018-02-06T11:38:13.730Z,44.25
2018-02-06T11:40:43.123Z,43.25
2018-02-06T11:43:12.468Z,43.15
2018-02-06T11:45:41.846Z,44.90
2018-02-06T11:48:11.231Z,47.83
2018-02-06T11:50:40.639Z,55.47
2018-02-06T11:53:10.018Z,48.83
2018-02-06T11:55:39.370Z,48.85
2018-02-06T11:58:08.713Z,42.33
2018-02-06T12:00:38.086Z,47.75
2018-02-06T12:03:07.431Z,43.13
2018-02-06T12:05:36.846Z,41.55
2018-02-06T12:08:06.204Z,46.72
2018-02-06T12:10:36.319Z,47.50
2018-02-06T12:13:05.699Z,49.08
2018-02-06T12:15:36.563Z,51.20
2018-02-06T12:18:06.686Z,42.65
2018-02-06T12:20:36.168Z,48.08
2018-02-06T12:23:05.556Z,59.53
2018-02-06T12:25:34.904Z,47.85
2018-02-06T12:28:04.359Z,50.90
2018-02-06T12:30:33.732Z,50.20
2018-02-06T12:33:03.086Z,51.47
2018-02-06T12:35:32.441Z,48.53
2018-02-06T12:38:01.806Z,45.35
2018-02-06T12:40:31.941Z,48.87
2018-02-06T12:43:02.120Z,41.85
2018-02-06T12:45:31.477Z,48.20
2018-02-06T12:48:00.870Z,49.80
2018-02-06T12:50:30.228Z,48.85
2018-02-06T12:52:59.567Z,45.70
2018-02-06T12:55:28.932Z,45.90
2018-02-06T12:57:58.293Z,50.22
2018-02-06T13:00:27.639Z,42.62
2018-02-06T13:02:57.021Z,47.53
2018-02-06T13:05:26.359Z,45.12
2018-02-06T13:07:56.482Z,45.90
2018-02-06T13:10:25.857Z,44.30
2018-02-06T13:12:55.190Z,52.38
2018-02-06T13:15:25.319Z,44.00
2018-02-06T13:17:54.670Z,49.10
2018-02-06T13:20:24.038Z,50.47
2018-02-06T13:22:53.371Z,48.92
2018-02-06T13:25:22.756Z,40.78
2018-02-06T13:27:52.109Z,46.10
2018-02-06T13:30:22.226Z,42.67
2018-02-06T13:32:52.381Z,46.80
2018-02-06T13:35:21.732Z,46.85
2018-02-06T13:37:51.087Z,48.85
2018-02-06T13:40:20.481Z,40.80
2018-02-06T13:42:49.813Z,41.37
2018-02-06T13:45:19.789Z,48.72
2018-02-06T13:47:49.899Z,49.78
2018-02-06T13:50:19.259Z,41.78
2018-02-06T13:52:48.596Z,43.58
2018-02-06T13:55:18.718Z,45.03
2018-02-06T13:57:50.396Z,39.53
2018-02-06T14:00:19.747Z,43.35
2018-02-06T14:02:49.142Z,39.38
2018-02-06T14:05:18.490Z,39.60
2018-02-06T14:07:47.859Z,48.00
2018-02-06T14:10:17.245Z,47.75
2018-02-06T14:12:46.625Z,43.30
2018-02-06T14:15:16.005Z,40.40
2018-02-06T14:17:45.385Z,37.75
2018-02-06T14:20:15.528Z,36.67
2018-02-06T14:22:44.875Z,44.75
2018-02-06T14:25:14.258Z,41.85
2018-02-06T14:27:43.647Z,42.85
2018-02-06T14:30:13.010Z,49.30
2018-02-06T14:32:43.150Z,41.60
2018-02-06T14:35:13.570Z,42.67
2018-02-06T14:37:45.957Z,42.62
2018-02-06T14:40:15.326Z,37.83
2018-02-06T14:42:44.681Z,44.22
2018-02-06T14:45:14.052Z,43.92
2018-02-06T14:47:44.175Z,47.22
2018-02-06T14:50:13.536Z,42.08
2018-02-06T14:52:42.920Z,48.70
2018-02-06T14:55:12.279Z,42.45
2018-02-06T14:57:41.673Z,41.97
2018-02-06T15:00:11.059Z,42.88
2018-02-06T15:02:40.442Z,46.50
2018-02-06T15:05:09.801Z,43.87
2018-02-06T15:07:39.197Z,40.95
2018-02-06T15:10:08.544Z,51.83
2018-02-06T15:12:37.903Z,40.88
2018-02-06T15:15:07.270Z,43.28
2018-02-06T15:17:36.619Z,38.22
2018-02-06T15:20:06.015Z,44.22
2018-02-06T15:22:35.402Z,47.50
2018-02-06T15:25:04.760Z,41.75
2018-02-06T15:27:34.129Z,41.35
2018-02-06T15:30:03.525Z,39.97
2018-02-06T15:32:32.899Z,45.78
2018-02-06T15:35:03.050Z,42.67
2018-02-06T15:37:32.421Z,46.13
2018-02-06T15:40:02.527Z,39.05
2018-02-06T15:42:32.680Z,35.03
2018-02-06T15:45:02.042Z,39.05
2018-02-06T15:47:31.400Z,48.95
2018-02-06T15:50:00.772Z,49.75
2018-02-06T15:52:30.879Z,36.47
2018-02-06T15:55:00.999Z,38.15
2018-02-06T15:57:31.137Z,41.67
2018-02-06T16:00:01.283Z,43.75
2018-02-06T16:02:30.632Z,51.58
2018-02-06T16:05:00.748Z,44.70
2018-02-06T16:07:30.091Z,39.15
2018-02-06T16:09:59.482Z,44.78
2018-02-06T16:12:29.613Z,43.03
2018-02-06T16:14:59.001Z,43.72
2018-02-06T16:17:29.137Z,42.92
2018-02-06T16:19:58.502Z,44.95
2018-02-06T16:22:27.879Z,43.80
2018-02-06T16:24:57.999Z,41.97
2018-02-06T16:27:27.398Z,42.17
2018-02-06T16:29:56.763Z,41.95
2018-02-06T16:32:26.159Z,43.60
2018-02-06T16:34:55.780Z,39.30
2018-02-06T16:37:25.171Z,39.25
2018-02-06T16:39:54.535Z,44.22
2018-02-06T16:42:23.896Z,41.20
2018-02-06T16:44:53.265Z,44.05
2018-02-06T16:47:23.366Z,40.70
2018-02-06T16:49:52.744Z,37.10
2018-02-06T16:52:22.144Z,44.15
2018-02-06T16:54:51.557Z,38.40
2018-02-06T16:57:20.976Z,42.92
2018-02-06T16:59:50.328Z,45.28
2018-02-06T17:02:37.245Z,39.35
2018-02-06T17:05:06.612Z,51.28
2018-02-06T17:07:35.988Z,49.80
2018-02-06T17:10:05.345Z,43.42
2018-02-06T17:12:34.702Z,47.80
2018-02-06T17:15:04.088Z,50.95
2018-02-06T17:17:33.445Z,48.78
2018-02-06T17:20:02.813Z,50.33
2018-02-06T17:22:32.935Z,48.97
2018-02-06T17:25:03.113Z,50.40
2018-02-06T17:27:32.476Z,51.97
2018-02-06T17:30:01.875Z,44.67
2018-02-06T17:32:31.219Z,54.13
2018-02-06T17:35:00.599Z,54.65
2018-02-06T17:37:29.994Z,62.80
2018-02-06T17:39:59.342Z,67.07
2018-02-06T17:42:28.914Z,52.05
2018-02-06T17:44:58.267Z,49.20
2018-02-06T17:47:28.413Z,42.95
2018-02-06T17:49:57.772Z,45.67
2018-02-06T17:52:27.142Z,44.13
2018-02-06T17:54:57.245Z,45.63
2018-02-06T17:57:26.624Z,48.20
2018-02-06T17:59:55.992Z,49.95
2018-02-06T18:02:25.346Z,44.92
2018-02-06T18:04:55.005Z,45.97
2018-02-06T18:07:24.411Z,48.03
2018-02-06T18:09:53.898Z,52.42
2018-02-06T18:12:23.312Z,44.17
2018-02-06T18:14:52.694Z,46.80
2018-02-06T18:17:22.091Z,44.95
2018-02-06T18:19:51.469Z,47.72
2018-02-06T18:22:20.927Z,43.40
2018-02-06T18:24:50.305Z,38.10
2018-02-06T18:27:19.677Z,48.35
2018-02-06T18:29:49.054Z,42.90
2018-02-06T18:32:18.436Z,44.63
2018-02-06T18:34:47.809Z,41.50
2018-02-06T18:37:17.171Z,51.60
2018-02-06T18:39:47.331Z,47.62
2018-02-06T18:42:16.701Z,48.60
2018-02-06T18:44:46.837Z,51.10
2018-02-06T18:47:16.212Z,49.95
2018-02-06T18:49:46.325Z,45.35
2018-02-06T18:52:15.691Z,53.90
2018-02-06T18:54:45.093Z,54.53
2018-02-06T18:57:14.489Z,51.58
2018-02-06T18:59:43.876Z,50.75
2018-02-06T19:02:13.231Z,51.35
2018-02-06T19:04:42.670Z,43.55
2018-02-06T19:07:12.034Z,53.95
2018-02-06T19:09:41.383Z,55.83
2018-02-06T19:12:10.778Z,49.45
2018-02-06T19:14:40.135Z,53.17
2018-02-06T19:17:09.495Z,51.67
2018-02-06T19:19:38.904Z,57.28
2018-02-06T19:22:08.352Z,46.70
2018-02-06T19:24:37.724Z,58.13
2018-02-06T19:27:07.104Z,58.50
2018-02-06T19:29:36.466Z,54.72
2018-02-06T19:32:05.827Z,48.78
2018-02-06T19:34:35.230Z,54.97
2018-02-06T19:37:04.607Z,53.70
2018-02-06T19:39:33.964Z,49.05
2018-02-06T19:42:03.320Z,50.58
2018-02-06T19:44:32.712Z,55.75
2018-02-06T19:47:02.069Z,50.90
2018-02-06T19:49:31.447Z,53.83
2018-02-06T19:52:00.828Z,51.97
2018-02-06T19:54:30.182Z,48.70
2018-02-06T19:56:59.570Z,47.38
2018-02-06T19:59:28.922Z,54.33
2018-02-06T20:01:58.284Z,53.15
2018-02-06T20:04:28.764Z,52.90
2018-02-06T20:06:58.144Z,56.22
2018-02-06T20:09:27.539Z,54.10
2018-02-06T20:11:56.932Z,57.65
2018-02-06T20:14:27.054Z,50.47
2018-02-06T20:16:57.225Z,52.08
2018-02-06T20:19:27.350Z,55.35
2018-02-06T20:21:56.738Z,46.20
2018-02-06T20:24:26.146Z,47.58
2018-02-06T20:26:55.499Z,49.40
2018-02-06T20:29:25.639Z,44.13
2018-02-06T20:31:55.025Z,47.55
2018-02-06T20:34:25.174Z,49.92
2018-02-06T20:36:54.539Z,51.37
2018-02-06T20:39:24.723Z,45.67
2018-02-06T20:41:54.106Z,49.70
2018-02-06T20:44:23.457Z,54.47
2018-02-06T20:46:52.841Z,53.50
2018-02-06T20:49:22.210Z,52.85
2018-02-06T20:51:51.583Z,56.05
2018-02-06T20:54:20.974Z,51.28
2018-02-06T20:56:51.112Z,49.92
2018-02-06T20:59:20.480Z,49.50
2018-02-06T21:01:49.818Z,51.67
2018-02-06T21:04:19.163Z,43.83
2018-02-06T21:06:48.583Z,50.85
2018-02-06T21:09:17.967Z,56.88
2018-02-06T21:11:47.329Z,50.63
2018-02-06T21:14:16.684Z,52.72
2018-02-06T21:16:46.043Z,48.47
2018-02-06T21:19:15.403Z,47.75
2018-02-06T21:21:45.299Z,50.10
2018-02-06T21:24:14.660Z,53.25
2018-02-06T21:26:44.978Z,53.13
2018-02-06T21:29:14.336Z,52.85
2018-02-06T21:31:43.678Z,48.42
2018-02-06T21:34:13.063Z,55.15
2018-02-06T21:36:43.201Z,51.60
2018-02-06T21:39:12.582Z,49.53
2018-02-06T21:41:42.711Z,50.10
2018-02-06T21:44:12.850Z,54.75
2018-02-06T21:46:42.250Z,59.75
2018-02-06T21:49:11.647Z,52.97
2018-02-06T21:51:41.005Z,52.78
2018-02-06T21:54:10.355Z,51.90
2018-02-06T21:56:39.710Z,53.05
2018-02-06T21:59:10.061Z,45.50
2018-02-06T22:01:40.180Z,53.47
2018-02-06T22:04:10.318Z,50.78
2018-02-06T22:06:39.696Z,53.70
2018-02-06T22:09:09.080Z,48.70
2018-02-06T22:11:38.430Z,49.78
2018-02-06T22:14:07.811Z,47.72
2018-02-06T22:16:38.056Z,51.90
2018-02-06T22:19:07.435Z,52.15
2018-02-06T22:21:37.580Z,52.10
2018-02-06T22:24:06.940Z,50.28
2018-02-06T22:26:36.341Z,53.53
2018-02-06T22:29:05.725Z,50.00
2018-02-06T22:31:35.096Z,42.60
2018-02-06T22:34:04.456Z,50.20
2018-02-06T22:36:34.596Z,53.40
2018-02-06T22:39:03.981Z,54.75
2018-02-06T22:41:34.115Z,55.45
2018-02-06T22:44:03.511Z,50.20
2018-02-06T22:46:32.888Z,52.15
2018-02-06T22:49:02.251Z,64.45
2018-02-06T22:51:31.626Z,55.30
2018-02-06T22:54:00.998Z,52.50
2018-02-06T22:56:30.434Z,55.20
2018-02-06T22:59:00.552Z,67.47
2018-02-06T23:01:29.945Z,62.60
2018-02-06T23:04:00.072Z,49.55
2018-02-06T23:06:29.427Z,50.17
2018-02-06T23:08:58.801Z,55.65
2018-02-06T23:11:28.156Z,55.63
2018-02-06T23:13:58.288Z,69.85
2018-02-06T23:16:28.468Z,53.42
2018-02-06T23:18:57.815Z,59.05
2018-02-06T23:21:27.183Z,60.35
2018-02-06T23:23:56.595Z,57.20
2018-02-06T23:26:26.741Z,57.60
2018-02-06T23:28:56.136Z,64.30
2018-02-06T23:31:25.539Z,56.78
2018-02-06T23:33:54.915Z,52.15
2018-02-06T23:36:24.271Z,54.47
2018-02-06T23:38:53.658Z,50.65
2018-02-06T23:41:23.020Z,60.50
2018-02-06T23:43:52.395Z,57.88
2018-02-06T23:46:21.770Z,60.33
2018-02-06T23:48:51.117Z,51.97
2018-02-06T23:51:21.413Z,56.37
2018-02-06T23:53:50.767Z,58.97
2018-02-06T23:56:20.886Z,59.83
2018-02-06T23:58:50.237Z,54.58
